createdAt,value
2023-04-30T00:00:52.329Z,99.32
2023-04-30T00:02:32.903Z,99.39
2023-04-30T00:04:13.218Z,99.33
2023-04-30T00:05:53.538Z,99.31
2023-04-30T00:07:33.930Z,99.23
2023-04-30T00:09:14.298Z,99.24
2023-04-30T00:10:54.730Z,99.23
2023-04-30T00:12:35.107Z,99.25
2023-04-30T00:14:15.606Z,99.21
2023-04-30T00:15:56.044Z,99.17
2023-04-30T00:17:36.468Z,99.18
2023-04-30T00:19:16.834Z,99.24
2023-04-30T00:20:57.221Z,99.26
2023-04-30T00:22:37.675Z,99.37
2023-04-30T00:24:18.049Z,99.46
2023-04-30T00:25:58.487Z,99.47
2023-04-30T00:27:40.895Z,99.5
2023-04-30T00:29:19.309Z,99.49
2023-04-30T00:30:59.761Z,99.51
2023-04-30T00:32:40.239Z,99.49
2023-04-30T00:34:20.581Z,99.49
2023-04-30T00:36:01.009Z,99.47
2023-04-30T00:37:41.451Z,99.49
2023-04-30T00:39:21.913Z,99.57
2023-04-30T00:41:02.396Z,99.56
2023-04-30T00:42:42.839Z,99.56
2023-04-30T00:44:23.279Z,99.61
2023-04-30T00:46:03.721Z,99.68
2023-04-30T00:47:44.086Z,99.64
2023-04-30T00:49:24.461Z,99.72
2023-04-30T00:51:04.895Z,99.7
2023-04-30T00:52:45.227Z,99.78
2023-04-30T00:54:25.699Z,99.75
2023-04-30T00:56:06.160Z,99.79
2023-04-30T00:57:46.558Z,99.83
2023-04-30T00:59:26.910Z,99.85
2023-04-30T01:01:07.380Z,99.84
2023-04-30T01:02:47.888Z,99.94
2023-04-30T01:04:28.196Z,99.95
2023-04-30T01:06:08.586Z,99.92
2023-04-30T01:07:48.955Z,99.93
2023-04-30T01:09:29.308Z,99.96
2023-04-30T01:11:09.788Z,99.95
2023-04-30T01:12:50.173Z,99.88
2023-04-30T01:14:30.685Z,99.91
2023-04-30T01:16:11.021Z,99.9
2023-04-30T01:17:51.499Z,99.91
2023-04-30T01:19:31.796Z,99.91
2023-04-30T01:21:12.209Z,99.9
2023-04-30T01:22:52.579Z,99.92
2023-04-30T01:24:32.955Z,99.87
2023-04-30T01:26:13.359Z,99.91
2023-04-30T01:27:53.820Z,99.99
2023-04-30T01:29:34.202Z,99.93
2023-04-30T01:31:14.624Z,99.91
2023-04-30T01:32:55.146Z,99.92
2023-04-30T01:34:35.546Z,99.94
2023-04-30T01:36:15.957Z,100
2023-04-30T01:37:56.364Z,99.95
2023-04-30T01:39:36.778Z,99.88
2023-04-30T01:41:17.237Z,99.86
2023-04-30T01:42:57.688Z,99.82
2023-04-30T01:44:38.110Z,99.92
2023-04-30T01:46:18.607Z,99.9
2023-04-30T01:47:59.040Z,99.99
2023-04-30T01:49:39.384Z,100
2023-04-30T01:51:19.771Z,100
2023-04-30T01:53:00.214Z,100
2023-04-30T01:54:40.562Z,100
2023-04-30T01:56:20.897Z,100
2023-04-30T01:58:01.286Z,100
2023-04-30T01:59:41.603Z,100
2023-04-30T02:01:22.167Z,100
2023-04-30T02:03:02.730Z,100
2023-04-30T02:04:42.986Z,100
2023-04-30T02:06:38.430Z,100
2023-04-30T02:08:03.786Z,100
2023-04-30T02:09:44.170Z,100
2023-04-30T02:11:24.568Z,100
2023-04-30T02:13:05.089Z,100
2023-04-30T02:14:45.505Z,100
2023-04-30T02:16:25.828Z,100
2023-04-30T02:18:06.320Z,100
2023-04-30T02:19:46.719Z,100
2023-04-30T02:21:27.139Z,100
2023-04-30T02:23:07.564Z,100
2023-04-30T02:24:47.975Z,100
2023-04-30T02:26:28.372Z,100
2023-04-30T02:28:08.893Z,100
2023-04-30T02:29:49.498Z,100
2023-04-30T02:31:29.830Z,100
2023-04-30T02:33:10.304Z,100
2023-04-30T02:34:50.714Z,100
2023-04-30T02:36:31.107Z,100
2023-04-30T02:38:11.504Z,100
2023-04-30T02:39:52.130Z,100
2023-04-30T02:41:32.262Z,100
2023-04-30T02:43:12.662Z,100
2023-04-30T02:44:53.083Z,100
2023-04-30T02:46:33.527Z,100
2023-04-30T02:48:13.895Z,100
2023-04-30T02:49:54.565Z,100
2023-04-30T02:51:34.802Z,100
2023-04-30T02:53:15.182Z,100
2023-04-30T02:54:55.638Z,100
2023-04-30T02:56:36.150Z,100
2023-04-30T02:58:16.515Z,100
2023-04-30T02:59:57.288Z,100
2023-04-30T03:01:37.417Z,100
2023-04-30T03:03:17.925Z,100
2023-04-30T03:04:58.192Z,100
2023-04-30T03:06:38.655Z,100
2023-04-30T03:08:19.053Z,100
2023-04-30T03:09:59.498Z,100
2023-04-30T03:11:40.011Z,100
2023-04-30T03:13:20.465Z,100
2023-04-30T03:15:00.879Z,100
2023-04-30T03:16:41.474Z,100
2023-04-30T03:18:21.704Z,100
2023-04-30T03:20:02.124Z,100
2023-04-30T03:21:42.509Z,100
2023-04-30T03:23:22.953Z,100
2023-04-30T03:25:03.376Z,100
2023-04-30T03:26:43.788Z,100
2023-04-30T03:28:24.186Z,100
2023-04-30T03:30:04.514Z,100
2023-04-30T03:31:44.890Z,100
2023-04-30T03:33:25.261Z,100
2023-04-30T03:35:05.652Z,100
2023-04-30T03:36:46.050Z,100
2023-04-30T03:38:26.501Z,100
2023-04-30T03:40:06.877Z,100
2023-04-30T03:41:47.362Z,100
2023-04-30T03:43:27.763Z,100
2023-04-30T03:45:08.254Z,100
2023-04-30T03:46:48.651Z,100
2023-04-30T03:48:29.140Z,100
2023-04-30T03:50:09.475Z,100
2023-04-30T03:51:49.953Z,100
2023-04-30T03:53:30.406Z,100
2023-04-30T03:55:10.846Z,100
2023-04-30T03:56:51.302Z,100
2023-04-30T03:58:31.713Z,100
2023-04-30T04:00:12.160Z,100
2023-04-30T04:01:52.604Z,100
2023-04-30T04:03:32.978Z,100
2023-04-30T04:05:13.376Z,100
2023-04-30T04:06:53.782Z,100
2023-04-30T04:08:34.203Z,100
2023-04-30T04:10:14.586Z,100
2023-04-30T04:11:54.925Z,100
2023-04-30T04:13:35.405Z,100
2023-04-30T04:15:15.879Z,100
2023-04-30T04:16:56.231Z,100
2023-04-30T04:18:36.642Z,100
2023-04-30T04:20:17.100Z,100
2023-04-30T04:21:57.469Z,100
2023-04-30T04:23:37.913Z,100
2023-04-30T04:25:18.526Z,100
2023-04-30T04:26:58.678Z,100
2023-04-30T04:28:39.087Z,100
2023-04-30T04:30:19.580Z,100
2023-04-30T04:32:00.101Z,100
2023-04-30T04:33:40.482Z,100
2023-04-30T04:35:20.918Z,100
2023-04-30T04:37:01.337Z,100
2023-04-30T04:38:41.760Z,100
2023-04-30T04:40:22.234Z,100
2023-04-30T04:42:02.626Z,100
2023-04-30T04:43:43.017Z,100
2023-04-30T04:45:23.473Z,100
2023-04-30T04:47:03.908Z,100
2023-04-30T04:48:44.271Z,100
2023-04-30T04:50:24.701Z,100
2023-04-30T04:52:05.147Z,100
2023-04-30T04:53:45.495Z,100
2023-04-30T04:55:25.932Z,100
2023-04-30T04:57:06.342Z,100
2023-04-30T04:58:46.726Z,100
2023-04-30T05:00:27.116Z,100
2023-04-30T05:02:07.573Z,100
2023-04-30T05:03:47.926Z,100
2023-04-30T05:05:28.149Z,100
2023-04-30T05:07:08.403Z,100
2023-04-30T05:08:48.780Z,100
2023-04-30T05:10:29.133Z,100
2023-04-30T05:12:09.500Z,100
2023-04-30T05:13:49.844Z,100
2023-04-30T05:15:30.190Z,100
2023-04-30T05:17:10.600Z,100
2023-04-30T05:18:51.095Z,100
2023-04-30T05:20:31.505Z,100
2023-04-30T05:22:11.942Z,100
2023-04-30T05:23:52.347Z,100
2023-04-30T05:25:32.782Z,100
2023-04-30T05:27:13.170Z,100
2023-04-30T05:28:53.600Z,100
2023-04-30T05:30:34.044Z,100
2023-04-30T05:32:14.565Z,100
2023-04-30T05:33:54.967Z,100
2023-04-30T05:35:35.360Z,100
2023-04-30T05:37:15.768Z,100
2023-04-30T05:38:56.159Z,100
2023-04-30T05:40:36.559Z,100
2023-04-30T05:42:17.028Z,100
2023-04-30T05:43:57.517Z,100
2023-04-30T05:45:37.822Z,100
2023-04-30T05:47:18.297Z,100
2023-04-30T05:48:58.743Z,100
2023-04-30T05:50:39.304Z,100
2023-04-30T05:52:19.586Z,100
2023-04-30T05:54:00.122Z,99.89
2023-04-30T05:55:40.534Z,99.73
2023-04-30T05:57:20.903Z,99.57
2023-04-30T05:59:01.245Z,99.51
2023-04-30T06:00:41.646Z,99.26
2023-04-30T06:02:22.153Z,98.83
2023-04-30T06:04:02.465Z,98.54
2023-04-30T06:05:43.043Z,98.32
2023-04-30T06:07:23.305Z,98.08
2023-04-30T06:09:03.787Z,97.55
2023-04-30T06:10:44.206Z,97.3
2023-04-30T06:12:24.603Z,97.36
2023-04-30T06:14:04.998Z,97.34
2023-04-30T06:15:45.356Z,97.15
2023-04-30T06:17:25.817Z,96.75
2023-04-30T06:19:06.267Z,96.26
2023-04-30T06:20:46.705Z,96.2
2023-04-30T06:22:27.106Z,95.38
2023-04-30T06:24:07.569Z,95.25
2023-04-30T06:25:48.052Z,95.22
2023-04-30T06:27:28.526Z,94.94
2023-04-30T06:29:08.968Z,94.68
2023-04-30T06:30:49.316Z,94.54
2023-04-30T06:32:29.792Z,94.39
2023-04-30T06:34:10.140Z,94.04
2023-04-30T06:35:50.510Z,94.04
2023-04-30T06:37:32.406Z,94.5
2023-04-30T06:39:11.392Z,94.29
2023-04-30T06:40:51.831Z,94.57
2023-04-30T06:42:32.227Z,93.84
2023-04-30T06:44:12.733Z,93.32
2023-04-30T06:45:53.121Z,91.79
2023-04-30T06:47:33.504Z,89.65
2023-04-30T06:49:13.863Z,88.96
2023-04-30T06:50:54.225Z,88.53
2023-04-30T06:52:34.615Z,87.71
2023-04-30T06:54:14.977Z,86.62
2023-04-30T06:55:55.352Z,85.45
2023-04-30T06:57:35.754Z,84.86
2023-04-30T06:59:16.155Z,84.79
2023-04-30T07:00:56.584Z,83.42
2023-04-30T07:02:37.064Z,83.05
2023-04-30T07:04:17.385Z,82.53
2023-04-30T07:05:57.847Z,83.44
2023-04-30T07:07:38.218Z,83.18
2023-04-30T07:09:18.635Z,82.76
2023-04-30T07:10:58.992Z,83.01
2023-04-30T07:12:39.474Z,83.81
2023-04-30T07:14:19.880Z,83.31
2023-04-30T07:16:00.279Z,84.3
2023-04-30T07:17:40.657Z,83.6
2023-04-30T07:19:21.137Z,84.78
2023-04-30T07:21:01.595Z,86.18
2023-04-30T07:22:42.117Z,84.53
2023-04-30T07:24:22.619Z,83.8
2023-04-30T07:26:02.945Z,82.74
2023-04-30T07:27:43.307Z,82.99
2023-04-30T07:29:23.670Z,81.79
2023-04-30T07:31:04.117Z,80.52
2023-04-30T07:32:44.484Z,81.11
2023-04-30T07:34:24.803Z,79.58
2023-04-30T07:36:05.253Z,79.33
2023-04-30T07:37:45.633Z,77.89
2023-04-30T07:39:26.053Z,73.69
2023-04-30T07:41:06.456Z,73.78
2023-04-30T07:42:46.823Z,72.36
2023-04-30T07:44:27.270Z,69.26
2023-04-30T07:46:07.685Z,69.31
2023-04-30T07:47:48.090Z,66.84
2023-04-30T07:49:28.481Z,67
2023-04-30T07:51:08.931Z,66.23
2023-04-30T07:52:49.344Z,66.56
2023-04-30T07:54:29.796Z,66.81
2023-04-30T07:56:10.169Z,65.26
2023-04-30T07:57:50.610Z,65.73
2023-04-30T07:59:31.062Z,63.37
2023-04-30T08:01:11.527Z,65.25
2023-04-30T08:02:52.027Z,63.48
2023-04-30T08:04:32.482Z,63.38
2023-04-30T08:06:12.636Z,64.36
2023-04-30T08:07:53.021Z,61.09
2023-04-30T08:09:33.395Z,61.06
2023-04-30T08:11:13.805Z,59.73
2023-04-30T08:12:54.291Z,59.37
2023-04-30T08:14:34.621Z,58.59
2023-04-30T08:16:15.117Z,58.88
2023-04-30T08:17:55.533Z,59.2
2023-04-30T08:19:35.859Z,57.62
2023-04-30T08:21:16.343Z,56.62
2023-04-30T08:22:56.707Z,57.15
2023-04-30T08:24:37.169Z,55.3
2023-04-30T08:26:17.603Z,55.62
2023-04-30T08:27:58.016Z,54.7
2023-04-30T08:29:38.519Z,55.4
2023-04-30T08:31:18.948Z,55.52
2023-04-30T08:32:59.239Z,56.72
2023-04-30T08:34:39.574Z,55.8
2023-04-30T08:36:19.917Z,54.68
2023-04-30T08:38:00.392Z,54.49
2023-04-30T08:39:40.793Z,53.57
2023-04-30T08:41:21.235Z,53.8
2023-04-30T08:43:01.619Z,53.63
2023-04-30T08:44:41.986Z,53.39
2023-04-30T08:46:22.461Z,53.28
2023-04-30T08:48:02.915Z,54.55
2023-04-30T08:49:43.283Z,53.06
2023-04-30T08:51:23.707Z,52.49
2023-04-30T08:53:04.193Z,52.7
2023-04-30T08:54:44.593Z,51.14
2023-04-30T08:56:25.518Z,53.48
2023-04-30T08:58:05.448Z,52.46
2023-04-30T08:59:45.882Z,51.58
2023-04-30T09:01:26.375Z,50.07
2023-04-30T09:03:06.802Z,52.41
2023-04-30T09:04:47.065Z,50.54
2023-04-30T09:06:27.614Z,49.73
2023-04-30T09:08:07.919Z,54.88
2023-04-30T09:09:48.310Z,51.11
2023-04-30T09:11:28.781Z,49.31
2023-04-30T09:13:09.280Z,49.58
2023-04-30T09:14:49.567Z,52.76
2023-04-30T09:16:30.193Z,52.45
2023-04-30T09:18:10.500Z,50.09
2023-04-30T09:19:50.841Z,48.36
2023-04-30T09:21:31.210Z,48.5
2023-04-30T09:23:11.619Z,48.41
2023-04-30T09:24:52.062Z,50.32
2023-04-30T09:26:32.488Z,48.98
2023-04-30T09:28:12.900Z,48.23
2023-04-30T09:29:53.459Z,46.48
2023-04-30T09:31:33.911Z,47.07
2023-04-30T09:33:14.363Z,48.4
2023-04-30T09:34:54.627Z,48.46
2023-04-30T09:36:35.047Z,49.31
2023-04-30T09:38:15.379Z,44.96
2023-04-30T09:39:56.122Z,44.45
2023-04-30T09:41:36.194Z,46.51
2023-04-30T09:43:16.646Z,45.55
2023-04-30T09:44:57.066Z,44.98
2023-04-30T09:46:37.617Z,45.48
2023-04-30T09:48:18.191Z,46.79
2023-04-30T09:49:58.390Z,45.96
2023-04-30T09:51:38.710Z,44.3
2023-04-30T09:53:19.158Z,45.76
2023-04-30T09:54:59.504Z,46.7
2023-04-30T09:56:39.862Z,43.89
2023-04-30T09:58:20.246Z,45.06
2023-04-30T10:00:00.656Z,45.44
2023-04-30T10:01:41.418Z,44.25
2023-04-30T10:03:21.488Z,46.45
2023-04-30T10:05:01.866Z,42.2
2023-04-30T10:06:42.335Z,43.18
2023-04-30T10:08:22.734Z,42.26
2023-04-30T10:10:03.196Z,42.41
2023-04-30T10:11:43.601Z,43.81
2023-04-30T10:13:24.154Z,43.77
2023-04-30T10:15:04.505Z,41.36
2023-04-30T10:16:45.060Z,43.35
2023-04-30T10:18:25.365Z,42.76
2023-04-30T10:20:05.776Z,44.53
2023-04-30T10:21:46.254Z,44.03
2023-04-30T10:23:26.681Z,40.27
2023-04-30T10:25:07.056Z,40.14
2023-04-30T10:26:47.455Z,41.34
2023-04-30T10:28:27.884Z,42.39
2023-04-30T10:30:08.268Z,40.18
2023-04-30T10:31:48.732Z,41.77
2023-04-30T10:33:29.078Z,40.07
2023-04-30T10:35:09.472Z,38.52
2023-04-30T10:36:49.888Z,42.66
2023-04-30T10:38:30.291Z,38.03
2023-04-30T10:40:10.643Z,38.11
2023-04-30T10:41:51.066Z,38.09
2023-04-30T10:43:31.476Z,38.08
2023-04-30T10:45:11.874Z,37.58
2023-04-30T10:46:52.326Z,36.6
2023-04-30T10:48:32.683Z,36
2023-04-30T10:50:13.184Z,37.21
2023-04-30T10:51:53.578Z,37.87
2023-04-30T10:53:33.982Z,39.11
2023-04-30T10:55:14.418Z,38.5
2023-04-30T10:56:54.782Z,38.79
2023-04-30T10:58:35.169Z,39.6
2023-04-30T11:00:15.613Z,37.27
2023-04-30T11:01:56.095Z,36.09
2023-04-30T11:03:36.437Z,37.37
2023-04-30T11:05:17.082Z,37.21
2023-04-30T11:06:57.223Z,37.14
2023-04-30T11:08:37.615Z,36.42
2023-04-30T11:10:17.976Z,40.02
2023-04-30T11:11:58.356Z,35.72
2023-04-30T11:13:38.761Z,36.01
2023-04-30T11:15:19.108Z,36.53
2023-04-30T11:16:59.626Z,36.5
2023-04-30T11:18:40.018Z,36.1
2023-04-30T11:20:20.349Z,34.33
2023-04-30T11:22:00.744Z,36.26
2023-04-30T11:23:42.211Z,35.63
2023-04-30T11:25:21.641Z,35.99
2023-04-30T11:27:02.060Z,37.43
2023-04-30T11:28:42.462Z,35.15
2023-04-30T11:30:22.876Z,38.97
2023-04-30T11:32:03.356Z,34.61
2023-04-30T11:33:43.722Z,35.65
2023-04-30T11:35:24.077Z,36.47
2023-04-30T11:37:04.481Z,35.23
2023-04-30T11:38:44.911Z,34.72
2023-04-30T11:40:25.346Z,35.39
2023-04-30T11:42:05.711Z,34.41
2023-04-30T11:43:46.105Z,34.6
2023-04-30T11:45:26.464Z,35.43
2023-04-30T11:47:07.075Z,35.93
2023-04-30T11:48:47.399Z,33.84
2023-04-30T11:50:27.801Z,35.63
2023-04-30T11:52:08.179Z,34.15
2023-04-30T11:53:48.578Z,34.32
2023-04-30T11:55:29.029Z,35.47
2023-04-30T11:57:09.418Z,35.9
2023-04-30T11:58:49.920Z,34.5
2023-04-30T12:00:30.276Z,34.11
2023-04-30T12:02:13.508Z,35.07
2023-04-30T12:03:51.231Z,35.73
2023-04-30T12:05:31.530Z,35.27
2023-04-30T12:07:12.027Z,36.11
2023-04-30T12:08:52.479Z,35.95
2023-04-30T12:10:32.888Z,36.98
2023-04-30T12:12:13.316Z,36.06
2023-04-30T12:13:53.789Z,35.7
2023-04-30T12:15:34.254Z,34.79
2023-04-30T12:17:14.792Z,35.85
2023-04-30T12:18:55.106Z,34.11
2023-04-30T12:20:35.585Z,34.01
2023-04-30T12:22:15.935Z,33.77
2023-04-30T12:23:56.280Z,33.41
2023-04-30T12:25:36.783Z,32.97
2023-04-30T12:27:17.184Z,31.9
2023-04-30T12:28:57.622Z,33.91
2023-04-30T12:30:38.066Z,32.84
2023-04-30T12:32:18.575Z,32.47
2023-04-30T12:33:58.865Z,32.58
2023-04-30T12:35:39.237Z,31.74
2023-04-30T12:37:19.576Z,33.44
2023-04-30T12:39:00.051Z,32.14
2023-04-30T12:40:40.448Z,33.01
2023-04-30T12:42:20.858Z,31.21
2023-04-30T12:44:01.300Z,32.63
2023-04-30T12:45:41.843Z,31.7
2023-04-30T12:47:22.183Z,34.01
2023-04-30T12:49:02.542Z,32.36
2023-04-30T12:50:42.950Z,31.71
2023-04-30T12:52:23.416Z,33.32
2023-04-30T12:54:03.803Z,32.36
2023-04-30T12:55:47.291Z,30.44
2023-04-30T12:57:24.684Z,31.24
2023-04-30T12:59:05.129Z,31.19
2023-04-30T13:00:45.570Z,31.22
2023-04-30T13:02:26.092Z,31.08
2023-04-30T13:04:06.526Z,29.32
2023-04-30T13:05:46.829Z,31.32
2023-04-30T13:07:27.257Z,31.96
2023-04-30T13:09:07.691Z,33.67
2023-04-30T13:10:48.145Z,30.6
2023-04-30T13:12:28.550Z,30.03
2023-04-30T13:14:08.908Z,31.94
2023-04-30T13:15:49.315Z,32.54
2023-04-30T13:17:29.762Z,31.15
2023-04-30T13:19:10.179Z,30.61
2023-04-30T13:20:50.573Z,30.01
2023-04-30T13:22:30.987Z,30.41
2023-04-30T13:24:11.401Z,30.46
2023-04-30T13:25:51.745Z,30.98
2023-04-30T13:27:32.252Z,31.45
2023-04-30T13:29:12.732Z,29.61
2023-04-30T13:30:53.193Z,31.56
2023-04-30T13:32:33.551Z,31.23
2023-04-30T13:34:13.862Z,32.29
2023-04-30T13:35:54.225Z,31.59
2023-04-30T13:37:34.625Z,31.26
2023-04-30T13:39:15.007Z,30.82
2023-04-30T13:40:55.425Z,32.63
2023-04-30T13:42:35.842Z,33.23
2023-04-30T13:44:16.277Z,31.83
2023-04-30T13:45:56.701Z,31.21
2023-04-30T13:47:37.113Z,32.81
2023-04-30T13:49:17.457Z,31.67
2023-04-30T13:50:57.829Z,31.93
2023-04-30T13:52:38.295Z,31.96
2023-04-30T13:54:18.729Z,32.25
2023-04-30T13:55:59.123Z,32.5
2023-04-30T13:57:39.588Z,31.74
2023-04-30T13:59:20.031Z,31.48
2023-04-30T14:01:00.553Z,31.74
2023-04-30T14:02:41.055Z,31.87
2023-04-30T14:04:21.393Z,32
2023-04-30T14:06:01.740Z,30.23
2023-04-30T14:07:42.090Z,31.7
2023-04-30T14:09:22.526Z,31.89
2023-04-30T14:11:02.933Z,31.92
2023-04-30T14:12:43.363Z,31.02
2023-04-30T14:14:23.725Z,32.26
2023-04-30T14:16:04.165Z,30.06
2023-04-30T14:17:44.531Z,29.36
2023-04-30T14:19:24.933Z,29.39
2023-04-30T14:21:05.272Z,29.64
2023-04-30T14:22:45.712Z,30.46
2023-04-30T14:24:26.133Z,30.51
2023-04-30T14:26:06.478Z,30.09
2023-04-30T14:27:46.913Z,29.18
2023-04-30T14:29:27.320Z,29.65
2023-04-30T14:31:07.769Z,29.05
2023-04-30T14:32:48.255Z,29.11
2023-04-30T14:34:28.575Z,30.96
2023-04-30T14:36:09.002Z,29.7
2023-04-30T14:37:49.446Z,30.01
2023-04-30T14:39:29.885Z,29.87
2023-04-30T14:41:10.270Z,30.08
2023-04-30T14:42:50.795Z,30.17
2023-04-30T14:44:31.031Z,28.61
2023-04-30T14:46:11.547Z,30.19
2023-04-30T14:47:51.943Z,29.44
2023-04-30T14:49:32.281Z,29.3
2023-04-30T14:51:12.662Z,29.15
2023-04-30T14:52:53.094Z,28.41
2023-04-30T14:54:33.546Z,27.79
2023-04-30T14:56:14.002Z,29.4
2023-04-30T14:57:54.385Z,28.88
2023-04-30T14:59:34.828Z,29.24
2023-04-30T15:01:15.283Z,28.57
2023-04-30T15:02:55.726Z,29.55
2023-04-30T15:04:36.009Z,28.88
2023-04-30T15:06:16.442Z,28.96
2023-04-30T15:07:56.893Z,27.77
2023-04-30T15:09:37.313Z,30.01
2023-04-30T15:11:17.709Z,28.43
2023-04-30T15:12:58.175Z,29
2023-04-30T15:14:38.582Z,27.6
2023-04-30T15:16:19.129Z,27.73
2023-04-30T15:17:59.468Z,28.82
2023-04-30T15:19:39.895Z,29.3
2023-04-30T15:21:20.294Z,28.29
2023-04-30T15:23:00.740Z,30.03
2023-04-30T15:24:41.138Z,29.42
2023-04-30T15:26:21.452Z,28.93
2023-04-30T15:28:01.924Z,29.31
2023-04-30T15:29:42.365Z,28.42
2023-04-30T15:31:22.799Z,28.74
2023-04-30T15:33:03.319Z,30.11
2023-04-30T15:34:43.698Z,30.58
2023-04-30T15:36:24.161Z,30.32
2023-04-30T15:38:04.596Z,30.06
2023-04-30T15:39:45.050Z,29.92
2023-04-30T15:41:25.397Z,31.65
2023-04-30T15:43:05.785Z,29.3
2023-04-30T15:44:46.196Z,29.29
2023-04-30T15:46:26.574Z,30.89
2023-04-30T15:48:07.018Z,30.49
2023-04-30T15:49:47.377Z,30.41
2023-04-30T15:51:27.738Z,29.81
2023-04-30T15:53:08.171Z,31.77
2023-04-30T15:54:48.582Z,31.89
2023-04-30T15:56:28.946Z,32.32
2023-04-30T15:58:09.331Z,29.58
2023-04-30T15:59:49.761Z,29.14
2023-04-30T16:01:30.224Z,30.59
2023-04-30T16:03:10.816Z,32.1
2023-04-30T16:04:51.094Z,30.81
2023-04-30T16:06:31.553Z,30.12
2023-04-30T16:08:11.849Z,29.68
2023-04-30T16:09:52.238Z,30.07
2023-04-30T16:11:32.669Z,29
2023-04-30T16:13:13.085Z,29.73
2023-04-30T16:14:53.558Z,28.52
2023-04-30T16:16:34.091Z,28.58
2023-04-30T16:18:14.457Z,28.23
2023-04-30T16:19:55.209Z,30
2023-04-30T16:21:37.130Z,28.52
2023-04-30T16:23:15.597Z,28.84
2023-04-30T16:24:55.978Z,26.63
2023-04-30T16:26:36.334Z,26.68
2023-04-30T16:28:16.751Z,30.17
2023-04-30T16:29:57.454Z,27.76
2023-04-30T16:31:37.723Z,28.36
2023-04-30T16:33:18.037Z,27.12
2023-04-30T16:34:58.418Z,28.57
2023-04-30T16:36:38.832Z,26.2
2023-04-30T16:38:19.344Z,25.92
2023-04-30T16:39:59.762Z,25.01
2023-04-30T16:41:40.212Z,25.86
2023-04-30T16:43:20.665Z,27.17
2023-04-30T16:45:00.990Z,25.3
2023-04-30T16:46:41.368Z,25.04
2023-04-30T16:48:21.832Z,25.58
2023-04-30T16:50:02.257Z,25.7
2023-04-30T16:51:45.780Z,23.98
2023-04-30T16:53:23.156Z,24.56
2023-04-30T16:55:03.472Z,24.9
2023-04-30T16:56:43.916Z,25.3
2023-04-30T16:58:24.367Z,24.95
2023-04-30T17:00:04.807Z,24.41
2023-04-30T17:01:45.179Z,24.52
2023-04-30T17:03:25.824Z,24.87
2023-04-30T17:05:06.103Z,24.21
2023-04-30T17:06:46.694Z,25.11
2023-04-30T17:08:26.923Z,24.5
2023-04-30T17:10:07.361Z,25.25
2023-04-30T17:11:47.710Z,25.13
2023-04-30T17:13:31.068Z,25.4
2023-04-30T17:15:08.425Z,23.99
2023-04-30T17:16:48.785Z,24.83
2023-04-30T17:18:29.238Z,26.34
2023-04-30T17:20:09.605Z,24.77
2023-04-30T17:21:50.065Z,24.66
2023-04-30T17:23:30.462Z,25.17
2023-04-30T17:25:10.857Z,24.8
2023-04-30T17:26:51.269Z,26.82
2023-04-30T17:28:31.618Z,27.13
2023-04-30T17:30:12.026Z,25.97
2023-04-30T17:31:52.563Z,26.74
2023-04-30T17:33:32.862Z,26.76
2023-04-30T17:35:13.285Z,25.76
2023-04-30T17:36:53.691Z,26.72
2023-04-30T17:38:34.142Z,26.52
2023-04-30T17:40:14.541Z,27.34
2023-04-30T17:41:54.946Z,26.96
2023-04-30T17:43:35.354Z,27.91
2023-04-30T17:45:18.863Z,27.63
2023-04-30T17:46:56.298Z,28.58
2023-04-30T17:48:36.644Z,30.11
2023-04-30T17:50:17.059Z,30.01
2023-04-30T17:51:57.454Z,30.65
2023-04-30T17:53:37.857Z,30.47
2023-04-30T17:55:18.249Z,32.32
2023-04-30T17:56:58.689Z,31.64
2023-04-30T17:58:40.079Z,33.96
2023-04-30T18:00:19.462Z,33.43
2023-04-30T18:01:59.851Z,31.94
2023-04-30T18:03:40.233Z,30.97
2023-04-30T18:05:23.624Z,33.24
2023-04-30T18:07:00.891Z,34.09
2023-04-30T18:08:41.222Z,32.96
2023-04-30T18:10:21.680Z,32.82
2023-04-30T18:12:02.077Z,32.09
2023-04-30T18:13:42.495Z,34.16
2023-04-30T18:15:22.935Z,32.87
2023-04-30T18:17:03.381Z,36.72
2023-04-30T18:18:43.798Z,36.34
2023-04-30T18:20:24.262Z,40.28
2023-04-30T18:22:04.638Z,38.03
2023-04-30T18:23:45.028Z,42.23
2023-04-30T18:25:25.497Z,41.35
2023-04-30T18:27:05.943Z,43.2
2023-04-30T18:28:46.404Z,43.3
2023-04-30T18:30:26.853Z,43.74
2023-04-30T18:32:07.287Z,41.79
2023-04-30T18:33:47.768Z,46.96
2023-04-30T18:35:28.188Z,49.23
2023-04-30T18:37:08.609Z,49.05
2023-04-30T18:38:48.988Z,48.94
2023-04-30T18:40:29.484Z,48.77
2023-04-30T18:42:09.854Z,50.76
2023-04-30T18:43:50.289Z,50.87
2023-04-30T18:45:30.796Z,49.95
2023-04-30T18:47:11.117Z,50.22
2023-04-30T18:48:51.511Z,51.51
2023-04-30T18:50:31.989Z,52.1
2023-04-30T18:52:12.412Z,52.81
2023-04-30T18:53:52.842Z,53.14
2023-04-30T18:55:33.250Z,54.04
2023-04-30T18:57:13.679Z,53.72
2023-04-30T18:58:54.148Z,54.62
2023-04-30T19:00:34.669Z,55.37
2023-04-30T19:02:15.103Z,56.98
2023-04-30T19:03:55.481Z,56.68
2023-04-30T19:05:35.781Z,56.18
2023-04-30T19:07:16.115Z,51.87
2023-04-30T19:08:56.520Z,54.29
2023-04-30T19:10:36.921Z,56.73
2023-04-30T19:12:17.248Z,58.76
2023-04-30T19:13:57.750Z,60.06
2023-04-30T19:15:38.197Z,60.18
2023-04-30T19:17:20.223Z,60.05
2023-04-30T19:18:59.026Z,60.69
2023-04-30T19:20:39.471Z,59.83
2023-04-30T19:22:19.904Z,61.55
2023-04-30T19:24:00.289Z,61.15
2023-04-30T19:25:40.730Z,60.42
2023-04-30T19:27:21.161Z,60.5
2023-04-30T19:29:01.609Z,60.84
2023-04-30T19:30:42.182Z,62.06
2023-04-30T19:32:22.779Z,63.61
2023-04-30T19:35:43.409Z,63.69
2023-04-30T19:37:23.805Z,61.88
2023-04-30T19:39:04.211Z,63.29
2023-04-30T19:40:44.747Z,62.42
2023-04-30T19:42:25.147Z,63.27
2023-04-30T19:44:05.487Z,63.86
2023-04-30T19:45:45.954Z,63.53
2023-04-30T19:47:26.351Z,64.97
2023-04-30T19:49:06.745Z,65.45
2023-04-30T19:50:47.126Z,65.87
2023-04-30T19:52:27.471Z,66
2023-04-30T19:54:07.855Z,66.69
2023-04-30T19:55:51.307Z,67.98
2023-04-30T19:57:28.683Z,68.34
2023-04-30T19:59:09.098Z,68.77
2023-04-30T20:00:49.617Z,68.47
2023-04-30T20:02:30.019Z,69.14
2023-04-30T20:04:10.492Z,70.23
2023-04-30T20:05:50.782Z,70.79
2023-04-30T20:07:31.205Z,70.71
2023-04-30T20:09:11.584Z,71.17
2023-04-30T20:10:51.830Z,71.96
2023-04-30T20:12:32.121Z,72.01
2023-04-30T20:14:12.665Z,71.88
2023-04-30T20:15:52.867Z,72.18
2023-04-30T20:17:33.287Z,72.85
2023-04-30T20:19:13.535Z,73.01
2023-04-30T20:20:53.935Z,72.81
2023-04-30T20:22:34.317Z,73.51
2023-04-30T20:24:14.722Z,73.91
2023-04-30T20:25:55.172Z,74.01
2023-04-30T20:27:35.540Z,74.45
2023-04-30T20:29:15.929Z,75.24
2023-04-30T20:30:56.434Z,75.07
2023-04-30T20:32:36.816Z,74.83
2023-04-30T20:34:17.230Z,75.52
2023-04-30T20:35:57.600Z,75.47
2023-04-30T20:37:37.993Z,75.57
2023-04-30T20:39:18.343Z,75.66
2023-04-30T20:40:58.757Z,76.83
2023-04-30T20:42:39.231Z,77.1
2023-04-30T20:44:19.577Z,77.23
2023-04-30T20:45:59.998Z,76.98
2023-04-30T20:47:40.442Z,77.66
2023-04-30T20:49:20.839Z,77.89
2023-04-30T20:51:01.190Z,78.13
2023-04-30T20:52:41.600Z,79.07
2023-04-30T20:54:22.086Z,78.72
2023-04-30T20:56:02.449Z,80
2023-04-30T20:57:42.882Z,80.3
2023-04-30T20:59:23.304Z,80.32
2023-04-30T21:01:03.792Z,80.2
2023-04-30T21:02:44.246Z,80.09
2023-04-30T21:04:24.618Z,79.84
2023-04-30T21:06:04.968Z,80.74
2023-04-30T21:07:45.387Z,80.87
2023-04-30T21:09:25.802Z,81.46
2023-04-30T21:11:06.271Z,81.2
2023-04-30T21:12:46.732Z,80.67
2023-04-30T21:14:27.169Z,80.72
2023-04-30T21:16:07.741Z,80.75
2023-04-30T21:17:48.126Z,81.38
2023-04-30T21:19:28.530Z,82.26
2023-04-30T21:21:08.813Z,82.29
2023-04-30T21:22:49.253Z,82.98
2023-04-30T21:24:29.609Z,82.9
2023-04-30T21:26:09.944Z,83.01
2023-04-30T21:27:50.503Z,83.44
2023-04-30T21:29:30.951Z,83.8
2023-04-30T21:31:11.361Z,84.58
2023-04-30T21:32:51.761Z,83.99
2023-04-30T21:34:32.064Z,83.55
2023-04-30T21:36:12.372Z,83.3
2023-04-30T21:37:52.782Z,83.14
2023-04-30T21:39:33.190Z,83.8
2023-04-30T21:41:13.554Z,83.22
2023-04-30T21:42:53.990Z,84.19
2023-04-30T21:44:34.413Z,84.67
2023-04-30T21:46:14.919Z,84.53
2023-04-30T21:47:55.271Z,84.42
2023-04-30T21:49:35.611Z,84.28
2023-04-30T21:51:16.005Z,84.42
2023-04-30T21:52:56.442Z,85.09
2023-04-30T21:54:36.870Z,84.59
2023-04-30T21:56:18.192Z,85.1